createdAt,value
2018-08-19T00:01:00.620Z,85.41
2018-08-19T00:03:30.301Z,85.51
2018-08-19T00:05:59.643Z,86.19
2018-08-19T00:08:29.220Z,86.84
2018-08-19T00:11:06.189Z,87.70
2018-08-19T00:13:36.355Z,88.65
2018-08-19T00:16:06.049Z,87.97
2018-08-19T00:18:36.763Z,86.80
2018-08-19T00:21:09.713Z,87.24
2018-08-19T00:23:44.239Z,87.19
2018-08-19T00:26:14.747Z,86.47
2018-08-19T00:28:43.818Z,87.40
2018-08-19T00:31:13.165Z,86.20
2018-08-19T00:33:42.518Z,86.95
2018-08-19T00:36:25.284Z,87.37
2018-08-19T00:38:55.272Z,87.73
2018-08-19T00:41:25.040Z,87.69
2018-08-19T00:43:54.111Z,87.22
2018-08-19T00:46:29.107Z,88.35
2018-08-19T00:48:58.805Z,88.19
2018-08-19T00:51:28.702Z,87.95
2018-08-19T00:53:58.302Z,88.54
2018-08-19T00:56:27.620Z,87.98
2018-08-19T00:58:57.466Z,88.14
2018-08-19T01:01:35.895Z,88.59
2018-08-19T01:04:07.464Z,88.44
2018-08-19T01:06:41.757Z,87.87
2018-08-19T01:09:11.389Z,89.24
2018-08-19T01:11:42.709Z,89.38
2018-08-19T01:14:14.435Z,88.46
2018-08-19T01:16:43.937Z,89.24
2018-08-19T01:19:13.659Z,90.78
2018-08-19T01:21:44.068Z,89.60
2018-08-19T01:24:13.349Z,89.31
2018-08-19T01:26:43.212Z,88.99
2018-08-19T01:29:12.745Z,89.84
2018-08-19T01:31:42.338Z,89.39
2018-08-19T01:34:13.262Z,90.27
2018-08-19T01:36:42.998Z,89.50
2018-08-19T01:39:13.448Z,89.72
2018-08-19T01:41:43.306Z,89.50
2018-08-19T01:44:14.306Z,89.71
2018-08-19T01:46:46.490Z,89.69
2018-08-19T01:49:15.612Z,90.20
2018-08-19T01:51:47.240Z,90.48
2018-08-19T01:54:23.550Z,89.40
2018-08-19T01:56:54.829Z,90.37
2018-08-19T01:59:26.105Z,90.29
2018-08-19T02:01:59.276Z,92.06
2018-08-19T02:04:28.476Z,91.28
2018-08-19T02:06:57.628Z,90.84
2018-08-19T02:09:26.735Z,90.58
2018-08-19T02:11:57.240Z,90.66
2018-08-19T02:14:26.699Z,90.23
2018-08-19T02:16:56.945Z,90.69
2018-08-19T02:19:26.577Z,90.93
2018-08-19T02:21:55.956Z,92.19
2018-08-19T02:24:25.822Z,91.26
2018-08-19T02:26:54.923Z,91.20
2018-08-19T02:29:35.203Z,91.36
2018-08-19T02:32:05.631Z,91.43
2018-08-19T02:34:36.256Z,90.73
2018-08-19T02:37:15.555Z,91.14
2018-08-19T02:39:47.050Z,91.79
2018-08-19T02:42:27.554Z,90.53
2018-08-19T02:45:03.560Z,91.01
2018-08-19T02:47:33.742Z,91.70
2018-08-19T02:50:03.105Z,92.36
2018-08-19T02:52:35.415Z,93.37
2018-08-19T02:55:06.082Z,92.36
2018-08-19T02:57:36.420Z,90.57
2018-08-19T03:00:06.310Z,91.18
2018-08-19T03:02:37.809Z,91.33
2018-08-19T03:05:11.183Z,91.57
2018-08-19T03:07:40.638Z,91.20
2018-08-19T03:10:11.592Z,91.90
2018-08-19T03:12:41.336Z,92.40
2018-08-19T03:15:11.906Z,92.32
2018-08-19T03:17:42.137Z,92.59
2018-08-19T03:20:13.659Z,92.73
2018-08-19T03:22:43.291Z,93.76
2018-08-19T03:25:12.907Z,92.48
2018-08-19T03:27:42.172Z,91.43
2018-08-19T03:30:13.150Z,92.22
2018-08-19T03:32:47.047Z,92.23
2018-08-19T03:35:16.783Z,92.33
2018-08-19T03:37:46.181Z,93.76
2018-08-19T03:40:15.580Z,92.55
2018-08-19T03:42:44.903Z,92.44
2018-08-19T03:45:20.381Z,92.75
2018-08-19T03:47:50.854Z,92.49
2018-08-19T03:50:27.548Z,92.30
2018-08-19T03:52:57.508Z,93.53
2018-08-19T03:55:30.038Z,94.02
2018-08-19T03:58:03.381Z,93.80
2018-08-19T04:00:35.010Z,93.11
2018-08-19T04:03:26.542Z,92.70
2018-08-19T04:06:00.515Z,93.33
2018-08-19T04:08:34.984Z,92.78
2018-08-19T04:11:07.477Z,93.72
2018-08-19T04:13:41.718Z,92.68
2018-08-19T04:16:12.012Z,93.98
2018-08-19T04:18:43.498Z,93.93
2018-08-19T04:21:15.077Z,94.13
2018-08-19T04:23:46.971Z,93.93
2018-08-19T04:26:16.822Z,93.86
2018-08-19T04:28:46.905Z,93.10
2018-08-19T04:31:21.246Z,94.95
2018-08-19T04:33:50.646Z,93.82
2018-08-19T04:36:20.961Z,93.95
2018-08-19T04:38:50.119Z,93.58
2018-08-19T04:41:19.434Z,93.40
2018-08-19T04:43:48.933Z,93.66
2018-08-19T04:46:17.920Z,93.97
2018-08-19T04:48:48.188Z,93.17
2018-08-19T04:51:17.242Z,93.62
2018-08-19T04:53:46.314Z,94.46
2018-08-19T04:56:15.380Z,94.02
2018-08-19T04:58:44.512Z,94.17
2018-08-19T05:01:13.776Z,93.63
2018-08-19T05:03:44.929Z,93.61
2018-08-19T05:06:14.197Z,92.45
2018-08-19T05:08:43.311Z,93.12
2018-08-19T05:11:12.296Z,93.55
2018-08-19T05:13:41.288Z,92.60
2018-08-19T05:16:10.377Z,91.70
2018-08-19T05:18:39.377Z,91.68
2018-08-19T05:21:13.478Z,91.40
2018-08-19T05:23:42.562Z,90.48
2018-08-19T05:26:13.511Z,89.46
2018-08-19T05:28:45.713Z,87.70
2018-08-19T05:31:14.820Z,88.22
2018-08-19T05:33:44.195Z,87.49
2018-08-19T05:36:13.208Z,86.09
2018-08-19T05:38:42.915Z,85.84
2018-08-19T05:41:12.221Z,86.27
2018-08-19T05:43:41.743Z,86.14
2018-08-19T05:46:10.827Z,85.06
2018-08-19T05:48:40.179Z,83.93
2018-08-19T05:51:10.947Z,82.41
2018-08-19T05:53:45.033Z,81.49
2018-08-19T05:56:14.400Z,82.41
2018-08-19T05:58:43.422Z,82.51
2018-08-19T06:01:16.642Z,80.73
2018-08-19T06:03:45.922Z,80.91
2018-08-19T06:06:15.441Z,78.79
2018-08-19T06:08:45.023Z,80.24
2018-08-19T06:11:14.427Z,83.21
2018-08-19T06:13:43.898Z,85.23
2018-08-19T06:16:13.280Z,83.98
2018-08-19T06:18:42.812Z,83.84
2018-08-19T06:21:12.017Z,82.06
2018-08-19T06:23:41.979Z,80.84
2018-08-19T06:26:11.646Z,82.88
2018-08-19T06:28:40.900Z,81.94
2018-08-19T06:31:10.229Z,80.49
2018-08-19T06:33:39.723Z,82.76
2018-08-19T06:36:10.371Z,81.82
2018-08-19T06:38:39.831Z,81.04
2018-08-19T06:41:09.230Z,81.38
2018-08-19T06:43:38.538Z,82.41
2018-08-19T06:46:07.904Z,80.99
2018-08-19T06:48:36.959Z,81.27
2018-08-19T06:51:06.313Z,81.99
2018-08-19T06:53:38.249Z,80.09
2018-08-19T06:56:08.937Z,78.99
2018-08-19T06:58:38.386Z,76.68
2018-08-19T07:01:08.114Z,78.88
2018-08-19T07:03:39.970Z,78.28
2018-08-19T07:06:11.093Z,74.64
2018-08-19T07:08:40.588Z,73.95
2018-08-19T07:11:09.773Z,74.99
2018-08-19T07:13:38.938Z,74.75
2018-08-19T07:16:07.993Z,74.59
2018-08-19T07:18:38.302Z,71.95
2018-08-19T07:21:07.342Z,68.75
2018-08-19T07:23:36.638Z,70.12
2018-08-19T07:26:05.815Z,69.10
2018-08-19T07:28:34.892Z,66.99
2018-08-19T07:31:04.028Z,70.08
2018-08-19T07:33:33.586Z,68.13
2018-08-19T07:36:02.868Z,66.77
2018-08-19T07:38:32.166Z,68.52
2018-08-19T07:41:01.323Z,67.77
2018-08-19T07:43:30.468Z,65.30
2018-08-19T07:46:00.013Z,64.14
2018-08-19T07:48:29.083Z,64.78
2018-08-19T07:50:58.207Z,67.27
2018-08-19T07:53:27.324Z,66.46
2018-08-19T07:55:56.942Z,64.04
2018-08-19T07:58:37.176Z,61.33
2018-08-19T08:01:06.594Z,61.18
2018-08-19T08:03:36.994Z,59.97
2018-08-19T08:06:06.349Z,60.71
2018-08-19T08:08:36.048Z,61.13
2018-08-19T08:11:05.377Z,61.05
2018-08-19T08:13:34.736Z,60.08
2018-08-19T08:16:04.612Z,60.83
2018-08-19T08:18:34.226Z,60.48
2018-08-19T08:21:08.749Z,59.46
2018-08-19T08:23:38.156Z,57.04
2018-08-19T08:26:07.152Z,59.96
2018-08-19T08:28:36.252Z,57.92
2018-08-19T08:31:08.382Z,57.99
2018-08-19T08:33:40.437Z,56.37
2018-08-19T08:36:10.848Z,58.63
2018-08-19T08:38:41.980Z,56.17
2018-08-19T08:41:11.326Z,58.38
2018-08-19T08:43:40.319Z,58.76
2018-08-19T08:46:09.339Z,56.77
2018-08-19T08:48:38.424Z,54.84
2018-08-19T08:51:07.456Z,54.61
2018-08-19T08:53:41.421Z,53.76
2018-08-19T08:56:10.527Z,52.98
2018-08-19T08:58:39.733Z,52.64
2018-08-19T09:01:08.750Z,53.72
2018-08-19T09:03:37.797Z,52.78
2018-08-19T09:06:15.706Z,50.02
2018-08-19T09:08:44.765Z,53.08
2018-08-19T09:11:13.809Z,54.41
2018-08-19T09:13:42.889Z,50.79
2018-08-19T09:16:12.261Z,52.59
2018-08-19T09:18:41.716Z,49.64
2018-08-19T09:21:11.222Z,52.44
2018-08-19T09:23:40.763Z,50.72
2018-08-19T09:26:10.021Z,50.31
2018-08-19T09:28:39.571Z,50.57
2018-08-19T09:31:09.448Z,50.70
2018-08-19T09:33:39.250Z,50.49
2018-08-19T09:36:08.722Z,50.02
2018-08-19T09:38:38.135Z,49.31
2018-08-19T09:41:07.554Z,50.62
2018-08-19T09:43:37.003Z,47.84
2018-08-19T09:46:06.715Z,49.99
2018-08-19T09:48:36.194Z,48.02
2018-08-19T09:51:10.531Z,46.15
2018-08-19T09:53:40.309Z,48.30
2018-08-19T09:56:10.611Z,46.55
2018-08-19T09:58:40.586Z,44.87
2018-08-19T10:01:15.000Z,45.62
2018-08-19T10:03:44.405Z,45.67
2018-08-19T10:06:14.658Z,45.71
2018-08-19T10:08:44.030Z,44.55
2018-08-19T10:11:13.376Z,45.57
2018-08-19T10:13:42.834Z,46.27
2018-08-19T10:16:12.372Z,44.73
2018-08-19T10:18:41.832Z,40.26
2018-08-19T10:21:16.398Z,41.75
2018-08-19T10:23:45.823Z,40.18
2018-08-19T10:26:15.066Z,39.44
2018-08-19T10:28:44.514Z,40.81
2018-08-19T10:31:19.284Z,39.56
2018-08-19T10:33:51.212Z,38.75
2018-08-19T10:36:20.714Z,37.69
2018-08-19T10:38:49.992Z,35.17
2018-08-19T10:41:19.519Z,36.68
2018-08-19T10:43:48.792Z,35.93
2018-08-19T10:46:18.543Z,36.53
2018-08-19T10:48:49.552Z,36.37
2018-08-19T10:51:19.066Z,36.21
2018-08-19T10:53:48.476Z,34.76
2018-08-19T10:56:17.863Z,35.72
2018-08-19T10:58:57.575Z,35.18
2018-08-19T11:01:27.187Z,34.48
2018-08-19T11:03:56.599Z,34.89
2018-08-19T11:06:26.313Z,34.56
2018-08-19T11:08:57.944Z,32.95
2018-08-19T11:11:32.322Z,33.11
2018-08-19T11:14:03.530Z,32.35
2018-08-19T11:16:32.932Z,31.35
2018-08-19T11:19:02.409Z,32.06
2018-08-19T11:24:26.741Z,33.01
2018-08-19T11:27:01.787Z,32.25
2018-08-19T11:29:33.905Z,33.54
2018-08-19T11:32:03.378Z,33.17
2018-08-19T11:34:32.755Z,32.25
2018-08-19T11:37:02.164Z,31.04
2018-08-19T11:39:36.509Z,31.27
2018-08-19T11:42:05.826Z,31.48
2018-08-19T11:44:36.128Z,30.30
2018-08-19T11:47:05.421Z,30.34
2018-08-19T11:49:34.944Z,29.28
2018-08-19T11:52:05.266Z,30.38
2018-08-19T11:54:35.208Z,29.80
2018-08-19T11:57:12.715Z,29.88
2018-08-19T11:59:44.205Z,30.24
2018-08-19T12:02:17.078Z,29.45
2018-08-19T12:04:46.928Z,30.27
2018-08-19T12:07:16.637Z,29.76
2018-08-19T12:10:01.358Z,30.31
2018-08-19T12:12:46.049Z,31.52
2018-08-19T12:15:16.502Z,30.39
2018-08-19T12:17:46.227Z,30.00
2018-08-19T12:20:23.314Z,29.80
2018-08-19T12:22:53.019Z,29.27
2018-08-19T12:25:22.438Z,30.77
2018-08-19T12:27:51.559Z,28.64
2018-08-19T12:30:20.647Z,29.15
2018-08-19T12:32:49.852Z,29.16
2018-08-19T12:35:19.365Z,29.32
2018-08-19T12:37:49.223Z,30.61
2018-08-19T12:40:18.474Z,29.41
2018-08-19T12:42:53.784Z,29.42
2018-08-19T12:45:24.389Z,29.23
2018-08-19T12:47:53.915Z,28.31
2018-08-19T12:50:24.697Z,28.07
2018-08-19T12:52:54.044Z,28.52
2018-08-19T12:55:23.326Z,28.60
2018-08-19T12:58:01.773Z,29.57
2018-08-19T13:00:31.154Z,28.86
2018-08-19T13:03:00.453Z,29.73
2018-08-19T13:05:29.858Z,29.66
2018-08-19T13:07:59.543Z,29.23
2018-08-19T13:10:39.181Z,27.83
2018-08-19T13:13:08.576Z,28.42
2018-08-19T13:15:37.987Z,28.47
2018-08-19T13:18:07.365Z,27.23
2018-08-19T13:20:36.578Z,27.80
2018-08-19T13:23:06.291Z,27.84
2018-08-19T13:25:35.684Z,28.53
2018-08-19T13:28:05.261Z,28.38
2018-08-19T13:30:34.641Z,28.93
2018-08-19T13:33:04.343Z,28.58
2018-08-19T13:35:33.816Z,27.77
2018-08-19T13:38:03.168Z,27.44
2018-08-19T13:40:32.572Z,27.68
2018-08-19T13:43:02.209Z,27.06
2018-08-19T13:45:31.833Z,26.62
2018-08-19T13:48:00.928Z,27.27
2018-08-19T13:50:29.936Z,27.86
2018-08-19T13:52:58.996Z,28.37
2018-08-19T13:55:28.837Z,27.93
2018-08-19T13:57:57.997Z,27.15
2018-08-19T14:00:33.202Z,28.17
2018-08-19T14:03:02.678Z,28.22
2018-08-19T14:05:32.129Z,27.52
2018-08-19T14:08:01.549Z,28.65
2018-08-19T14:10:30.859Z,28.12
2018-08-19T14:13:00.243Z,25.56
2018-08-19T14:15:29.431Z,24.07
2018-08-19T14:17:58.508Z,26.65
2018-08-19T14:20:27.738Z,23.87
2018-08-19T14:22:56.790Z,23.98
2018-08-19T14:25:25.822Z,25.69
2018-08-19T14:27:54.775Z,25.40
2018-08-19T14:30:24.102Z,26.12
2018-08-19T14:32:53.096Z,26.38
2018-08-19T14:35:22.174Z,27.58
2018-08-19T14:37:51.170Z,26.83
2018-08-19T14:40:20.386Z,27.94
2018-08-19T14:42:50.466Z,25.03
2018-08-19T14:45:19.547Z,25.97
2018-08-19T14:47:49.726Z,27.12
2018-08-19T14:50:20.350Z,28.04
2018-08-19T14:52:49.615Z,27.92
2018-08-19T14:55:19.739Z,27.15
2018-08-19T14:57:49.827Z,26.61
2018-08-19T15:00:19.255Z,28.46
2018-08-19T15:02:48.673Z,26.73
2018-08-19T15:05:20.744Z,27.94
2018-08-19T15:07:50.377Z,27.68
2018-08-19T15:10:22.589Z,27.58
2018-08-19T15:12:51.942Z,26.95
2018-08-19T15:15:21.101Z,27.94
2018-08-19T15:17:57.156Z,29.35
2018-08-19T15:20:35.893Z,28.21
2018-08-19T15:23:20.189Z,26.76
2018-08-19T15:25:49.595Z,29.46
2018-08-19T15:28:19.159Z,30.80
2018-08-19T15:30:48.245Z,29.83
2018-08-19T15:33:17.716Z,29.05
2018-08-19T15:35:47.253Z,27.73
2018-08-19T15:38:16.629Z,30.72
2018-08-19T15:40:48.864Z,29.87
2018-08-19T15:43:18.566Z,31.73
2018-08-19T15:45:47.894Z,33.39
2018-08-19T15:48:17.518Z,34.33
2018-08-19T15:50:46.749Z,34.61
2018-08-19T15:53:17.831Z,35.06
2018-08-19T15:55:47.245Z,35.10
2018-08-19T15:58:16.847Z,34.32
2018-08-19T16:00:46.312Z,35.68
2018-08-19T16:03:15.781Z,35.00
2018-08-19T16:05:44.827Z,34.38
2018-08-19T16:08:13.985Z,36.16
2018-08-19T16:10:43.897Z,34.84
2018-08-19T16:13:13.596Z,36.36
2018-08-19T16:15:43.007Z,40.14
2018-08-19T16:18:12.125Z,41.83
2018-08-19T16:20:44.612Z,40.64
2018-08-19T16:23:13.941Z,42.64
2018-08-19T16:25:43.236Z,43.28
2018-08-19T16:28:12.548Z,44.17
2018-08-19T16:30:41.572Z,43.15
2018-08-19T16:33:11.270Z,42.69
2018-08-19T16:35:41.266Z,44.97
2018-08-19T16:38:10.483Z,44.16
2018-08-19T16:40:39.888Z,41.90
2018-08-19T16:43:09.099Z,44.39
2018-08-19T16:45:38.234Z,45.48
2018-08-19T16:48:07.564Z,46.86
2018-08-19T16:50:36.687Z,46.68
2018-08-19T16:53:05.677Z,47.45
2018-08-19T16:55:34.714Z,48.70
2018-08-19T16:58:03.766Z,48.94
2018-08-19T17:00:32.979Z,49.68
2018-08-19T17:03:03.065Z,50.00
2018-08-19T17:05:34.251Z,51.61
2018-08-19T17:08:03.494Z,51.12
2018-08-19T17:10:33.185Z,52.27
2018-08-19T17:13:03.268Z,51.13
2018-08-19T17:15:32.644Z,50.79
2018-08-19T17:18:02.274Z,52.89
2018-08-19T17:20:31.821Z,50.96
2018-08-19T17:23:01.359Z,51.97
2018-08-19T17:25:30.978Z,52.59
2018-08-19T17:28:05.780Z,53.23
2018-08-19T17:30:35.185Z,53.91
2018-08-19T17:33:08.772Z,53.37
2018-08-19T17:35:39.924Z,52.28
2018-08-19T17:38:09.749Z,53.56
2018-08-19T17:40:39.125Z,54.64
2018-08-19T17:43:08.267Z,55.20
2018-08-19T17:45:37.465Z,53.58
2018-08-19T17:48:06.540Z,55.67
2018-08-19T17:50:37.997Z,56.46
2018-08-19T17:53:07.921Z,57.16
2018-08-19T17:55:36.955Z,58.33
2018-08-19T17:58:06.237Z,59.21
2018-08-19T18:00:35.654Z,60.17
2018-08-19T18:03:05.240Z,60.27
2018-08-19T18:05:34.713Z,59.78
2018-08-19T18:08:04.037Z,57.26
2018-08-19T18:10:33.413Z,58.49
2018-08-19T18:13:02.813Z,59.41
2018-08-19T18:15:32.361Z,60.13
2018-08-19T18:18:05.714Z,60.08
2018-08-19T18:20:36.606Z,60.33
2018-08-19T18:23:12.974Z,61.48
2018-08-19T18:25:43.748Z,62.42
2018-08-19T18:28:16.942Z,60.88
2018-08-19T18:30:48.929Z,62.45
2018-08-19T18:33:18.055Z,62.42
2018-08-19T18:35:47.306Z,61.13
2018-08-19T18:38:27.941Z,62.51
2018-08-19T18:40:58.296Z,63.18
2018-08-19T18:43:27.785Z,63.57
2018-08-19T18:45:57.391Z,64.70
2018-08-19T18:48:26.743Z,65.12
2018-08-19T18:50:56.955Z,64.57
2018-08-19T18:53:28.294Z,62.49
2018-08-19T18:55:57.901Z,63.35
2018-08-19T18:58:28.189Z,60.79
2018-08-19T19:01:00.986Z,61.54
2018-08-19T19:03:30.323Z,63.65
2018-08-19T19:05:59.424Z,63.86
2018-08-19T19:08:28.506Z,63.83
2018-08-19T19:11:02.611Z,63.60
2018-08-19T19:13:31.794Z,63.99
2018-08-19T19:16:01.048Z,63.45
2018-08-19T19:18:30.357Z,64.88
2018-08-19T19:21:03.416Z,64.62
2018-08-19T19:23:36.751Z,64.27
2018-08-19T19:26:06.899Z,65.00
2018-08-19T19:28:36.985Z,65.97
2018-08-19T19:31:12.603Z,66.13
2018-08-19T19:33:42.100Z,65.23
2018-08-19T19:36:16.162Z,65.34
2018-08-19T19:38:50.678Z,66.25
2018-08-19T19:41:26.641Z,66.93
2018-08-19T19:43:56.095Z,67.93
2018-08-19T19:46:25.672Z,67.08
2018-08-19T19:48:55.134Z,67.83
2018-08-19T19:51:24.530Z,67.94
2018-08-19T19:53:53.846Z,68.48
2018-08-19T19:56:23.506Z,67.39
2018-08-19T19:58:53.490Z,66.33
2018-08-19T20:01:22.638Z,65.53
2018-08-19T20:03:55.899Z,66.29
2018-08-19T20:06:25.438Z,68.47
2018-08-19T20:08:55.191Z,68.41
2018-08-19T20:11:31.218Z,67.35
2018-08-19T20:14:02.252Z,66.85
2018-08-19T20:16:32.711Z,67.76
2018-08-19T20:19:02.579Z,68.57
2018-08-19T20:21:35.401Z,66.73
2018-08-19T20:24:07.674Z,67.51
2018-08-19T20:26:37.319Z,67.45
2018-08-19T20:29:07.874Z,67.60
2018-08-19T20:31:39.040Z,68.67
2018-08-19T20:34:08.665Z,67.93
2018-08-19T20:36:40.347Z,68.85
2018-08-19T20:39:12.405Z,69.02
2018-08-19T20:41:42.399Z,69.00
2018-08-19T20:44:12.274Z,68.80
2018-08-19T20:46:47.500Z,69.04
2018-08-19T20:49:16.980Z,69.92
2018-08-19T20:51:46.608Z,69.72
2018-08-19T20:54:16.663Z,70.81
2018-08-19T20:56:48.009Z,72.17
2018-08-19T20:59:24.894Z,72.12
2018-08-19T21:01:56.051Z,73.12
2018-08-19T21:04:25.438Z,72.30
2018-08-19T21:06:55.028Z,74.03
2018-08-19T21:09:25.707Z,73.39
2018-08-19T21:11:55.518Z,72.89
2018-08-19T21:14:24.935Z,73.21
2018-08-19T21:16:54.430Z,73.54
2018-08-19T21:19:23.613Z,74.13
2018-08-19T21:21:53.534Z,73.75
2018-08-19T21:24:23.002Z,75.57
2018-08-19T21:26:57.307Z,75.33
2018-08-19T21:29:26.757Z,75.81
2018-08-19T21:31:56.338Z,75.72
2018-08-19T21:34:26.671Z,77.11
2018-08-19T21:36:55.972Z,77.41
2018-08-19T21:39:25.322Z,76.19
2018-08-19T21:41:55.515Z,77.19
2018-08-19T21:44:24.689Z,77.25
2018-08-19T21:46:53.850Z,77.39
2018-08-19T21:49:23.032Z,78.49
2018-08-19T21:51:52.228Z,77.82
2018-08-19T21:54:21.478Z,78.67
2018-08-19T21:56:51.625Z,77.83
2018-08-19T21:59:24.149Z,77.46
2018-08-19T22:01:57.095Z,78.62
2018-08-19T22:04:26.756Z,78.40
2018-08-19T22:06:56.460Z,78.45
2018-08-19T22:09:33.669Z,80.29
2018-08-19T22:12:03.353Z,79.91
2018-08-19T22:14:33.433Z,79.15
2018-08-19T22:17:08.695Z,78.04
2018-08-19T22:19:38.079Z,77.32
2018-08-19T22:22:07.354Z,77.93
2018-08-19T22:24:36.567Z,79.28
2018-08-19T22:27:10.809Z,80.03
2018-08-19T22:29:40.233Z,79.27
2018-08-19T22:32:09.343Z,79.41
2018-08-19T22:34:39.182Z,79.74
2018-08-19T22:37:08.495Z,79.86
2018-08-19T22:39:37.827Z,81.57
2018-08-19T22:42:07.440Z,80.44
2018-08-19T22:44:36.835Z,80.52
2018-08-19T22:47:06.307Z,80.81
2018-08-19T22:49:35.490Z,81.18
2018-08-19T22:52:36.632Z,81.25
2018-08-19T22:55:05.945Z,80.66
2018-08-19T22:57:35.297Z,81.27
2018-08-19T23:00:07.077Z,81.77
2018-08-19T23:02:36.581Z,81.92
2018-08-19T23:05:05.909Z,82.25
2018-08-19T23:07:36.949Z,82.51
2018-08-19T23:10:09.674Z,82.40
2018-08-19T23:12:41.016Z,82.60
2018-08-19T23:15:21.686Z,81.80
2018-08-19T23:17:51.224Z,81.99
2018-08-19T23:20:20.738Z,81.59
2018-08-19T23:22:50.204Z,82.13
2018-08-19T23:25:19.524Z,82.65
2018-08-19T23:27:48.981Z,82.43
2018-08-19T23:30:18.333Z,82.58
2018-08-19T23:32:47.758Z,82.76
2018-08-19T23:35:17.099Z,82.26
2018-08-19T23:37:46.596Z,82.63
2018-08-19T23:40:15.993Z,83.06
2018-08-19T23:42:46.320Z,83.55
2018-08-19T23:45:15.720Z,83.29
2018-08-19T23:47:45.108Z,82.62
2018-08-19T23:50:14.579Z,83.14
2018-08-19T23:52:44.081Z,83.24
2018-08-19T23:55:13.563Z,83.76
2018-08-19T23:57:42.892Z,83.16
